Hlavní strana
METAR-TAF:

METAR-TAF

Letiště :

Vladivostok, Rusko

zeměpisná šířka: 43-07N, zeměpisná délka: 131-56E, výška: 184 m

Aktuální stav počasí

Zpráva byla vytvořena před 27 minutami, v 22:00 UTC
Bezvětří
Teplota -14°C
Vlhkost vzduchu 72%
Tlak 1033 hPa
Viditelnost: 5000 m
zákal

METAR: UHWW 132200Z 00000MPS 5000 HZ NSC M14/M18 Q1033 R25L/0///70 NOSIG RMK QFE773

Čas: 08:27 (22:27 UTC)

Předpověď počasí

Zpráva byla vytvořena před 2 hodinami a 27 minutami, v 20:00 UTC
Předpověď platná od 13 v 21 UTC do 14 v 21 UTC
Severní vítr 6 kt
Viditelnost 10 km a více
Oblačno až skoro zataženo ve výšce 1200 ft, Cumulonimbus.
Dočasný
od 14 v 00 UTC do 14 v 12 UTC
Severní vítr 19 kt
Viditelnost: 4000 m
slabé sněhové přeháňky

TAF: UHWW 132000Z 1321/1421 36003MPS 9999 BKN012CB TEMPO 1400/1412 36010MPS 4000 -SHSN

Stav a předpovědi počasí z více než 4 000 letišť (zprávy METAR a TAF).

Červené a žluté tečky na mapě představují dostupné meteorologické stanice.

Když kurzor umístíte na tečku, zobrazí se název stanice.

Pak kliknutím zobrazíte stav a předpověď počasí.

Chcete-li změnit mapu, kliknutím na zelené tlačítko se znaménkem +mapu přiblížíte, kliknutím na zelené tlačítko se znaménkem – mapu oddálíte a kliknutím na zelené šipky přejdete na sousední mapy.


METAR-TAF: